Historyczne dane pomiarowe

Dodano dane terminowe – wersja testowa.

Dane z okresu 1951-2019

Wersja bazy: 1.34 [2019-03-16, lista zmian], aktualizacja planowana na 2019-04-15

Dane meteo z obszaru Polski uzyskane na podstawie danych udostępnionych przez Instytut Meteorologii i Gospodarki Wodnej – Państwowy Instytut Badawczy.

 

Wybierz Datę:    

       

TemperaturaWilgotnośćWiatrCiśnienieOpadyŚniegCzas trwania zjawisk
 Stacja t tx tn tng RH VA  wxwx mslp ppp RRR   cm mm wxwxwxwxwxwxwx
1987-08-14 15.2 20.8 12.3 10.0 90.3- 8.0 2.7---- 8.5------------
1987-08-13 14.1 19.6 10.6 7.0 79.5- 5.3 2.0---- 0.2------------
1987-08-12 12.9 18.8 6.8 4.2 78.3- 5.0 1.7---- 0.0------------
1987-08-11 12.8 17.2 11.1 9.5 83.0- 7.0 4.3---- 0.5------------
1987-08-10 13.2 15.4 11.1 10.0 92.8- 6.7 3.7---- 3.8------------
1987-08-09 15.6 22.7 10.2 5.5 78.3- 4.0 3.3---- 8.1------------
1987-08-08 14.2 20.2 7.9 4.0 75.3- 5.0 2.7---- 0.0------------
1987-08-07 12.8 19.6 4.9 2.0 68.0- 3.7 2.0---- 0.0------------
1987-08-06 10.5 13.7 7.1 5.5 85.5- 6.0 3.7---- 4.9------------
1987-08-05 10.3 14.9 7.5 4.9 88.0- 5.3 4.7---- 1.8------------
1987-08-04 13.4 17.2 11.7 11.0 83.0- 4.7 4.0---- 2.6------------
1987-08-03 13.4 19.2 9.2 6.9 81.3- 5.3 2.7---- 1.0------------
1987-08-02 12.9 17.2 10.1 9.0 85.5- 7.3 4.0---- 3.6------------
1987-08-01 14.5 17.2 12.9 12.1 93.5- 8.0 3.7---- 19.9------------
1987-07-31 14.7 17.7 12.0 12.5 85.0- 7.3 4.0---- 0.3------------
1987-07-30 17.3 24.3 13.1 10.4 79.5- 6.3 2.3---- 2.9------------
1987-07-29 14.0 17.5 10.6 9.3 83.3- 3.0 0.7---- 0.0------------
1987-07-28 13.0 14.3 11.7 11.4 89.0- 8.0 2.3---- 1.2------------
1987-07-27 12.4 17.2 8.8 7.7 78.3- 5.3 6.3---- 5.7------------
1987-07-26 12.9 16.6 9.4 8.4 73.0- 3.7 5.0---- 1.7------------
1987-07-25 14.2 21.0 12.7 11.2 91.3- 7.3 2.7---- 1.0------------
1987-07-24 18.9 23.9 14.1 12.4 78.0- 3.0 2.3---- 0.0------------
1987-07-23 19.6 25.6 13.5 11.0 81.0- 5.3 1.0---- 6.9------------
1987-07-22 18.0 24.2 10.2 8.8 80.5- 0.7 2.0---- 0.0------------
1987-07-21 15.5 21.9 13.7 10.6 88.3- 8.0 1.3---- 5.7------------
1987-07-20 18.3 24.0 14.7 14.7 81.8- 6.0 1.3---- 0.0------------
1987-07-19 17.8 21.4 14.2 9.8 86.8- 8.0 1.7---- 16.7------------
1987-07-18 18.5 21.4 17.1 14.5 83.5- 8.0 2.0---- 10.4------------
1987-07-17 21.0 28.6 16.2 14.9 74.5- 6.0 4.3---- 1.7------------
1987-07-16 19.8 26.5 14.6 12.0 72.0- 7.7 2.7---- 0.1------------
1987-07-15 18.4 24.8 11.8 9.5 64.0- 1.3 5.7---- 0.0------------
1987-07-14 15.4 22.2 7.2 3.0 68.3- 1.0 2.0---- 0.0------------
1987-07-13 15.5 21.2 11.1 6.5 72.0- 5.3 2.3---- 0.0------------
1987-07-12 20.0 25.4 10.1 10.5 69.0- 0.7 2.3---- 4.4------------
1987-07-11 16.9 24.9 9.5 5.0 80.0- 3.3 2.7---- 0.0------------
1987-07-10 14.2 19.0 9.5 7.0 70.5- 1.3 5.3---- 0.0------------
1987-07-09 15.4 19.8 13.4 12.4 80.5- 5.3 2.0---- 0.0------------
1987-07-08 18.1 24.2 15.0 10.5 90.0- 6.7 4.0---- 4.1------------
1987-07-07 20.5 28.1 11.9 8.5 65.5- 0.0 3.7---- 0.0------------
1987-07-06 17.6 25.1 9.9 5.5 70.0- 0.0 3.0---- 0.0------------
1987-07-05 15.8 21.8 9.7 5.0 69.3- 0.0 1.3---- 0.0------------
1987-07-04 18.4 22.3 15.8 9.6 69.0- 5.3 2.0---- 0.0------------
1987-07-03 18.4 23.2 13.7 11.4 73.3- 3.3 2.0---- 0.0------------
1987-07-02 19.0 23.2 15.1 12.9 74.0- 3.0 1.7---- 0.0------------
1987-07-01 22.8 30.8 19.2 15.4 86.8- 5.3 2.3---- 24.7------------
1987-06-30 24.5 31.1 18.0 14.2 75.3- 0.0 1.3---- 0.0------------
1987-06-29 21.1 28.6 13.4 12.0 81.0- 6.0 1.7---- 0.0------------
1987-06-28 18.2 22.5 13.2 10.0 81.0- 4.7 2.7---- 0.3------------
1987-06-27 17.4 21.2 14.6 14.5 78.5- 5.0 2.0---- 0.0------------
1987-06-26 16.4 21.7 9.9 8.7 73.5- 4.7 2.7---- 3.5------------
1987-06-25 13.4 17.8 10.8 10.5 87.5- 6.3 3.7---- 7.1------------
1987-06-24 13.6 17.7 10.9 8.9 85.8- 5.3 3.3---- 8.7------------
1987-06-23 13.2 17.9 9.2 5.5 86.5- 6.7 3.7---- 0.4------------
1987-06-22 13.5 17.1 11.4 10.6 83.5- 7.7 1.7---- 0.0------------
1987-06-21 15.7 19.2 12.8 10.3 88.5- 7.7 3.0---- 4.0------------
1987-06-20 14.8 20.8 8.2 6.0 75.8- 4.3 4.0---- 4.5------------
1987-06-19 12.4 18.4 6.8 7.0 74.3- 4.7 3.0---- 0.0------------
1987-06-18 9.8 14.0 6.7 3.4 84.5- 7.0 6.0---- 5.5------------
1987-06-17 11.5 13.7 9.4 8.0 66.8- 4.0 5.0---- 0.2------------
1987-06-16 10.5 16.1 8.6 8.5 86.3- 7.3 6.7---- 2.3------------
535.7 ms

 

Źródłem pochodzenia danych jest Instytut Meteorologii i Gospodarki Wodnej – Państwowy Instytut Badawczy. Dane Instytutu Meteorologii i Gospodarki Wodnej – Państwowego Instytutu Badawczego zostały przetworzone.

Dane źródłowe można odnaleźć na stronie https://dane.imgw.pl